createdAt,value
2023-04-13T00:00:25.466Z,0
2023-04-13T00:05:29.658Z,0
2023-04-13T00:10:33.812Z,0
2023-04-13T00:15:37.923Z,0
2023-04-13T00:20:42.164Z,0
2023-04-13T00:25:46.268Z,0
2023-04-13T00:30:50.465Z,0
2023-04-13T00:35:54.601Z,0
2023-04-13T00:40:58.796Z,0
2023-04-13T00:46:02.956Z,0
2023-04-13T00:51:07.098Z,0
2023-04-13T00:56:11.250Z,0
2023-04-13T01:01:15.465Z,0
2023-04-13T01:06:19.545Z,0
2023-04-13T01:11:23.743Z,0
2023-04-13T01:16:28.081Z,0
2023-04-13T01:21:32.049Z,0
2023-04-13T01:26:36.220Z,0
2023-04-13T01:31:38.584Z,0
2023-04-13T01:36:42.651Z,0
2023-04-13T01:41:44.934Z,0
2023-04-13T01:46:49.053Z,0
2023-04-13T01:51:53.239Z,0
2023-04-13T01:56:57.418Z,0
2023-04-13T02:02:01.639Z,0
2023-04-13T02:07:05.748Z,0
2023-04-13T02:12:09.884Z,0
2023-04-13T02:17:14.050Z,0
2023-04-13T02:22:18.252Z,0
2023-04-13T02:27:22.357Z,0
2023-04-13T02:32:26.574Z,0
2023-04-13T02:37:30.694Z,0
2023-04-13T02:42:34.913Z,0
2023-04-13T02:52:43.168Z,0
2023-04-13T02:57:47.362Z,0
2023-04-13T03:02:51.602Z,0
2023-04-13T03:07:55.689Z,0
2023-04-13T03:12:59.932Z,0
2023-04-13T03:18:04.050Z,0
2023-04-13T03:23:08.175Z,0
2023-04-13T03:28:12.329Z,0
2023-04-13T03:33:14.602Z,0
2023-04-13T03:38:18.787Z,0
2023-04-13T03:43:21.037Z,0
2023-04-13T03:48:25.188Z,0
2023-04-13T03:53:27.445Z,0
2023-04-13T03:58:31.618Z,0
2023-04-13T04:03:35.894Z,0
2023-04-13T04:08:40.002Z,0
2023-04-13T04:13:44.097Z,0
2023-04-13T04:18:48.268Z,0
2023-04-13T04:23:52.422Z,1
2023-04-13T04:28:56.626Z,4
2023-04-13T04:34:00.954Z,14
2023-04-13T04:39:04.906Z,28
2023-04-13T04:44:09.118Z,53
2023-04-13T04:49:13.304Z,72
2023-04-13T04:54:17.443Z,105
2023-04-13T04:59:21.577Z,146
2023-04-13T05:04:25.783Z,178
2023-04-13T05:09:29.939Z,255
2023-04-13T05:14:34.070Z,440
2023-04-13T05:19:39.343Z,420
2023-04-13T05:24:42.419Z,671
2023-04-13T05:29:47.481Z,643
2023-04-13T05:34:48.854Z,1269
2023-04-13T05:39:51.103Z,2147
2023-04-13T05:44:55.283Z,2296
2023-04-13T05:49:59.432Z,1870
2023-04-13T05:55:03.667Z,1940
2023-04-13T06:00:07.815Z,1690
2023-04-13T06:05:11.983Z,2430
2023-04-13T06:10:16.129Z,2465
2023-04-13T06:15:20.265Z,3203
2023-04-13T06:20:24.386Z,4226
2023-04-13T06:25:28.587Z,4458
2023-04-13T06:30:32.767Z,4828
2023-04-13T06:35:36.902Z,3876
2023-04-13T06:40:41.058Z,3981
2023-04-13T06:45:45.188Z,4614
2023-04-13T06:50:49.400Z,7095
2023-04-13T06:55:53.556Z,5035
2023-04-13T07:00:57.718Z,5426
2023-04-13T07:06:01.930Z,4649
2023-04-13T07:11:06.062Z,4622
2023-04-13T07:16:12.513Z,5810
2023-04-13T07:21:14.337Z,4956
2023-04-13T07:26:16.823Z,4787
2023-04-13T07:31:20.818Z,4905
2023-04-13T07:36:23.042Z,5553
2023-04-13T07:41:27.226Z,5690
2023-04-13T07:46:31.455Z,5869
2023-04-13T07:51:35.565Z,7447
2023-04-13T07:56:39.720Z,7805
2023-04-13T08:01:43.976Z,9190
2023-04-13T08:06:48.041Z,6836
2023-04-13T08:11:52.199Z,5180
2023-04-13T08:16:56.567Z,5525
2023-04-13T08:22:00.513Z,6488
2023-04-13T08:27:04.721Z,7188
2023-04-13T08:32:08.960Z,8419
2023-04-13T08:37:12.996Z,6689
2023-04-13T08:42:17.189Z,7367
2023-04-13T08:47:21.341Z,5568
2023-04-13T08:52:25.520Z,4771
2023-04-13T08:57:29.628Z,5005
2023-04-13T09:02:33.938Z,5252
2023-04-13T09:07:37.934Z,6603
2023-04-13T09:12:42.167Z,4816
2023-04-13T09:17:46.294Z,4473
2023-04-13T09:22:48.548Z,5734
2023-04-13T09:27:52.753Z,3187
2023-04-13T09:32:55.095Z,7783
2023-04-13T09:37:59.170Z,6598
2023-04-13T09:43:03.314Z,7065
2023-04-13T09:48:07.514Z,9624
2023-04-13T09:53:11.685Z,10334
2023-04-13T09:58:15.819Z,13271
2023-04-13T10:03:20.044Z,6695
2023-04-13T10:08:36.592Z,8807
2023-04-13T10:13:28.287Z,12567
2023-04-13T10:18:32.601Z,11378
2023-04-13T10:23:36.632Z,9125
2023-04-13T10:28:40.753Z,9670
2023-04-13T10:33:45.361Z,3658
2023-04-13T10:38:49.101Z,4308
2023-04-13T10:43:53.263Z,6955
2023-04-13T10:48:57.755Z,3877
2023-04-13T10:54:01.584Z,9973
2023-04-13T10:59:05.734Z,9628
2023-04-13T11:04:14.892Z,13996
2023-04-13T11:09:16.782Z,14303
2023-04-13T11:14:19.373Z,15038
2023-04-13T11:19:20.520Z,14391
2023-04-13T11:24:24.689Z,12220
2023-04-13T11:29:28.811Z,5326
2023-04-13T11:34:33.061Z,12494
2023-04-13T11:39:37.143Z,12571
2023-04-13T11:44:41.324Z,9843
2023-04-13T11:49:45.458Z,5760
2023-04-13T11:54:49.663Z,7423
2023-04-13T12:04:58.127Z,9956
2023-04-13T12:10:05.838Z,11650
2023-04-13T12:15:17.169Z,11556
2023-04-13T12:20:11.990Z,8921
2023-04-13T12:25:14.793Z,13599
2023-04-13T12:30:18.734Z,11151
2023-04-13T12:35:22.928Z,6999
2023-04-13T12:40:27.064Z,8682
2023-04-13T12:45:31.243Z,8675
2023-04-13T12:50:35.389Z,9947
2023-04-13T12:55:39.545Z,7922
2023-04-13T13:00:43.760Z,8532
2023-04-13T13:05:47.859Z,8657
2023-04-13T13:10:50.148Z,3539
2023-04-13T13:15:54.302Z,8396
2023-04-13T13:20:56.564Z,11242
2023-04-13T13:26:21.910Z,12418
2023-04-13T13:31:02.995Z,9956
2023-04-13T13:36:07.180Z,7470
2023-04-13T13:41:11.327Z,4694
2023-04-13T13:46:15.536Z,8608
2023-04-13T13:51:19.639Z,8647
2023-04-13T13:56:23.825Z,7098
2023-04-13T14:01:28.033Z,9938
2023-04-13T14:06:32.141Z,9855
2023-04-13T14:11:36.317Z,9468
2023-04-13T14:16:40.475Z,5545
2023-04-13T14:21:44.639Z,6651
2023-04-13T14:26:48.985Z,4740
2023-04-13T14:31:53.003Z,3987
2023-04-13T14:36:57.077Z,4973
2023-04-13T14:42:01.256Z,4767
2023-04-13T14:47:08.466Z,5525
2023-04-13T14:52:09.546Z,6457
2023-04-13T14:57:13.833Z,6173
2023-04-13T15:02:17.977Z,4175
2023-04-13T15:07:22.046Z,5255
2023-04-13T15:12:26.232Z,8420
2023-04-13T15:17:28.656Z,14626
2023-04-13T15:22:32.664Z,15589
2023-04-13T15:27:34.980Z,19350
2023-04-13T15:32:39.077Z,18466
2023-04-13T15:37:43.251Z,7250
2023-04-13T15:42:47.410Z,11921
2023-04-13T15:47:51.752Z,9076
2023-04-13T15:52:55.728Z,4535
2023-04-13T15:57:59.865Z,11327
2023-04-13T16:03:04.207Z,8341
2023-04-13T16:08:08.176Z,8071
2023-04-13T16:13:12.348Z,6119
2023-04-13T16:18:16.503Z,6854
2023-04-13T16:23:20.693Z,7990
2023-04-13T16:28:24.926Z,5613
2023-04-13T16:33:28.990Z,4635
2023-04-13T16:38:33.191Z,3655
2023-04-13T16:43:37.469Z,4718
2023-04-13T16:48:41.457Z,6055
2023-04-13T16:53:45.632Z,5737
2023-04-13T16:58:49.783Z,4157
2023-04-13T17:03:54.119Z,5692
2023-04-13T17:08:58.354Z,3841
2023-04-13T17:14:00.386Z,4451
2023-04-13T17:19:04.536Z,4857
2023-04-13T17:24:08.720Z,5055
2023-04-13T17:29:12.917Z,5381
2023-04-13T17:34:17.035Z,4345
2023-04-13T17:39:21.205Z,4058
2023-04-13T17:44:25.374Z,3985
2023-04-13T17:49:29.507Z,1949
2023-04-13T17:54:33.678Z,1570
2023-04-13T17:59:37.793Z,1229
2023-04-13T18:04:42.016Z,911
2023-04-13T18:09:46.155Z,655
2023-04-13T18:14:50.333Z,470
2023-04-13T18:19:54.479Z,338
2023-04-13T18:24:58.667Z,245
2023-04-13T18:30:02.796Z,164
2023-04-13T18:35:06.958Z,87
2023-04-13T18:40:11.113Z,39
2023-04-13T18:45:15.297Z,17
2023-04-13T18:50:19.471Z,6
2023-04-13T18:55:23.594Z,2
2023-04-13T19:00:25.880Z,0
2023-04-13T19:05:30.078Z,0
2023-04-13T19:10:32.319Z,0
2023-04-13T19:15:36.488Z,0
2023-04-13T19:20:38.753Z,0
2023-04-13T19:25:42.955Z,0
2023-04-13T19:30:47.080Z,0
2023-04-13T19:35:51.251Z,0
2023-04-13T19:40:53.493Z,0
2023-04-13T19:51:01.886Z,0
2023-04-13T19:56:05.955Z,0
2023-04-13T20:01:10.181Z,0
2023-04-13T20:06:14.344Z,0
2023-04-13T20:11:18.474Z,0
2023-04-13T20:16:22.681Z,0
2023-04-13T20:21:26.802Z,0
2023-04-13T20:26:30.994Z,0
2023-04-13T20:31:35.317Z,0
2023-04-13T20:36:39.302Z,0
2023-04-13T20:41:43.449Z,0
2023-04-13T20:46:47.666Z,0
2023-04-13T20:51:49.874Z,0
2023-04-13T20:56:54.056Z,0
2023-04-13T21:01:58.276Z,0
2023-04-13T21:07:02.522Z,0
2023-04-13T21:12:06.526Z,0
2023-04-13T21:17:10.698Z,0
2023-04-13T21:22:14.865Z,0
2023-04-13T21:27:19.019Z,0
2023-04-13T21:32:21.380Z,0
2023-04-13T21:37:25.439Z,0
2023-04-13T21:42:29.612Z,0
2023-04-13T21:47:31.946Z,0
2023-04-13T21:52:36.049Z,0
2023-04-13T21:57:40.237Z,0
2023-04-13T22:02:44.510Z,0
2023-04-13T22:07:48.534Z,0
2023-04-13T22:12:52.741Z,0
2023-04-13T22:17:56.894Z,0
2023-04-13T22:23:01.061Z,0
2023-04-13T22:28:05.231Z,0
2023-04-13T22:33:09.359Z,0
2023-04-13T22:38:13.548Z,0
2023-04-13T22:43:17.700Z,0
2023-04-13T22:48:21.844Z,0
2023-04-13T22:53:26.038Z,0
2023-04-13T22:58:30.153Z,0
2023-04-13T23:03:34.511Z,0
2023-04-13T23:08:38.494Z,0
2023-04-13T23:13:42.718Z,0
2023-04-13T23:18:46.825Z,0
2023-04-13T23:23:51.026Z,0
2023-04-13T23:28:55.186Z,0
2023-04-13T23:33:57.435Z,0
2023-04-13T23:39:01.868Z,0
2023-04-13T23:44:03.861Z,0
2023-04-13T23:49:08.036Z,0
2023-04-13T23:54:12.229Z,0
2023-04-13T23:59:16.360Z,0
